Flight Track Log - Related Links

Times and Time Zones

All times are in EDT time to prevent confusion due to time zone crossing. See the N363SR flight status page for this flight to view local times or setup timezone preferences in your user account.


Time Position Orientation Groundspeed Altitude Reporting Facility
EDT Latitude Longitude Course Direction KTS MPH feet Rate Location/Type
Fri 08:34:42 AM 41.3500 -73.5167 217° Southwest 95 109 2,200  Level New York TRACON
Fri 08:35:47 AM 41.3167 -73.5500 217° Southwest 116 133 3,000 762 Climbing New York TRACON
Fri 08:36:48 AM 41.2833 -73.5667 201° Southwest 118 136 3,800 893 Climbing New York TRACON
Fri 08:37:48 AM 41.2667 -73.5833 217° Southwest 108 124 4,800 900 Climbing New York TRACON
Fri 08:38:48 AM 41.2333 -73.5833 180° South 97 112 5,600 600 Climbing New York TRACON
Fri 08:39:48 AM 41.2000 -73.6000 201° Southwest 123 142 6,000 200 Climbing New York TRACON
Fri 08:40:48 AM 41.1667 -73.6167 201° Southwest 152 175 6,000  Level New York TRACON
Fri 08:41:48 AM 41.1167 -73.6333 194° South 159 183 6,000  Level New York TRACON
Fri 08:42:54 AM 41.0833 -73.6333 180° South 155 178 6,000  Level New York TRACON
Fri 08:43:48 AM 41.0333 -73.6500 194° South 162 186 6,000  Level New York TRACON
Fri 08:44:54 AM 40.9833 -73.6667 194° South 166 191 6,000  Level New York TRACON
Fri 08:45:48 AM 40.9500 -73.6833 201° Southwest 164 189 6,000  Level New York TRACON
Fri 08:46:48 AM 40.9000 -73.7000 194° South 165 190 6,000  Level New York TRACON
Fri 08:47:42 AM 40.8667 -73.7000 180° South 166 191 6,000  Level New York TRACON
Fri 08:48:42 AM 40.8167 -73.7167 194° South 168 193 6,000  Level New York TRACON
Fri 08:49:42 AM 40.7667 -73.7333 194° South 167 192 6,000  Level New York TRACON
Fri 08:50:42 AM 40.7333 -73.7500 201° Southwest 168 193 6,000  Level New York TRACON
Fri 08:51:42 AM 40.6833 -73.7667 194° South 159 183 6,000  Level New York TRACON
Fri 08:52:48 AM 40.6333 -73.7667 180° South 144 166 6,000  Level New York TRACON
Fri 08:53:48 AM 40.6000 -73.8000 217° Southwest 154 177 6,000  Level New York TRACON
Fri 08:54:48 AM 40.5500 -73.8333 207° Southwest 159 183 6,000  Level New York TRACON
Fri 08:55:48 AM 40.5167 -73.8667 217° Southwest 163 188 6,000  Level New York TRACON
Fri 08:56:48 AM 40.4667 -73.9000 207° Southwest 164 189 6,000  Level New York TRACON
Fri 08:57:48 AM 40.4333 -73.9167 201° Southwest 165 190 6,000  Level New York TRACON
Fri 08:58:42 AM 40.4000 -73.9500 217° Southwest 163 188 6,000  Level New York TRACON
Fri 08:59:48 AM 40.3500 -73.9833 207° Southwest 165 190 6,000  Level New York TRACON
Fri 09:00:48 AM 40.3167 -74.0167 217° Southwest 162 186 6,000  Level New York TRACON
Fri 09:01:48 AM 40.2667 -74.0333 194° South 163 188 6,000  Level New York TRACON
Fri 09:03:00 AM 40.2190 -74.0492 194° South  Level FlightAware Approximate
Fri 09:10:00 AM 39.9876 -74.2613 215° Southwest  Level FlightAware Approximate
Fri 09:11:00 AM 39.9540 -74.2919 215° Southwest  Level FlightAware Approximate
Fri 09:12:00 AM 39.9204 -74.3225 215° Southwest  Level FlightAware Approximate
Fri 09:13:00 AM 39.8868 -74.3531 215° Southwest  Level FlightAware Approximate
Fri 09:14:00 AM 39.8531 -74.3836 215° Southwest  Level FlightAware Approximate
Fri 09:15:00 AM 39.8195 -74.4141 215° Southwest  Level FlightAware Approximate
Fri 09:16:00 AM 39.8017 -74.4615 247° West  Level FlightAware Approximate
Fri 09:17:00 AM 39.8000 -74.5144 270° West  Level FlightAware Approximate
Fri 09:18:00 AM 39.8000 -74.5677 270° West  Level FlightAware Approximate
Fri 09:19:00 AM 39.8000 -74.6211 270° West  Level FlightAware Approximate
Fri 09:20:00 AM 39.7902 -74.6724 252° West  Level FlightAware Approximate
Fri 09:21:00 AM 39.7833 -74.7243 270° West  Level FlightAware Approximate
Fri 09:22:00 AM 39.7833 -74.7777 270° West  Level FlightAware Approximate
Fri 09:23:00 AM 39.7833 -74.8310 270° West  Level FlightAware Approximate
Fri 09:24:00 AM 39.7767 -74.8833 255° West  Level FlightAware Approximate
Fri 09:25:00 AM 39.7667 -74.9333 255° West  Level FlightAware Approximate
Fri 09:26:00 AM 39.7784 -74.9478 255° West  Level Estimated
Fri 09:27:00 AM 39.7784 -74.9478 255° West  Level Estimated

Login

Don't have an account? Register now (free) for customized features, flight alerts, and more!